sensor_id;sensor_type;location;lat;lon;timestamp;P1;durP1;ratioP1;P2;durP2;ratioP2
20743;SDS011;56303;52.160;-0.428;2022-09-09T00:02:02;13.80;;;4.70;;
20743;SDS011;56303;52.160;-0.428;2022-09-09T00:04:42;13.20;;;4.37;;
20743;SDS011;56303;52.160;-0.428;2022-09-09T00:07:25;9.90;;;4.10;;
20743;SDS011;56303;52.160;-0.428;2022-09-09T00:10:13;8.50;;;4.93;;
20743;SDS011;56303;52.160;-0.428;2022-09-09T00:13:02;8.63;;;4.73;;
20743;SDS011;56303;52.160;-0.428;2022-09-09T00:15:45;11.73;;;4.77;;
20743;SDS011;56303;52.160;-0.428;2022-09-09T00:23:35;10.40;;;4.40;;
20743;SDS011;56303;52.160;-0.428;2022-09-09T00:26:14;10.27;;;4.43;;
20743;SDS011;56303;52.160;-0.428;2022-09-09T00:31:44;15.83;;;6.27;;
20743;SDS011;56303;52.160;-0.428;2022-09-09T00:34:19;14.37;;;5.77;;
20743;SDS011;56303;52.160;-0.428;2022-09-09T00:36:52;17.80;;;7.70;;
20743;SDS011;56303;52.160;-0.428;2022-09-09T00:45:02;16.73;;;6.93;;
20743;SDS011;56303;52.160;-0.428;2022-09-09T00:47:50;13.50;;;7.37;;
20743;SDS011;56303;52.160;-0.428;2022-09-09T00:50:25;15.10;;;8.20;;
20743;SDS011;56303;52.160;-0.428;2022-09-09T00:56:03;15.10;;;7.70;;
20743;SDS011;56303;52.160;-0.428;2022-09-09T00:58:37;13.87;;;6.80;;
20743;SDS011;56303;52.160;-0.428;2022-09-09T01:01:06;18.10;;;8.57;;
20743;SDS011;56303;52.160;-0.428;2022-09-09T01:06:30;14.53;;;7.00;;
20743;SDS011;56303;52.160;-0.428;2022-09-09T01:17:01;14.43;;;7.43;;
20743;SDS011;56303;52.160;-0.428;2022-09-09T01:27:40;18.23;;;10.80;;
20743;SDS011;56303;52.160;-0.428;2022-09-09T01:30:10;22.57;;;9.70;;
20743;SDS011;56303;52.160;-0.428;2022-09-09T01:35:15;18.63;;;9.87;;
20743;SDS011;56303;52.160;-0.428;2022-09-09T01:38:05;18.83;;;9.37;;
20743;SDS011;56303;52.160;-0.428;2022-09-09T01:40:32;11.33;;;8.60;;
20743;SDS011;56303;52.160;-0.428;2022-09-09T01:42:59;21.13;;;9.13;;
20743;SDS011;56303;52.160;-0.428;2022-09-09T01:45:26;15.77;;;9.77;;
20743;SDS011;56303;52.160;-0.428;2022-09-09T01:47:54;14.47;;;8.17;;
20743;SDS011;56303;52.160;-0.428;2022-09-09T01:50:21;12.87;;;8.20;;
20743;SDS011;56303;52.160;-0.428;2022-09-09T01:52:49;16.40;;;9.50;;
20743;SDS011;56303;52.160;-0.428;2022-09-09T01:55:23;18.37;;;8.73;;
20743;SDS011;56303;52.160;-0.428;2022-09-09T02:00:54;19.53;;;10.10;;
20743;SDS011;56303;52.160;-0.428;2022-09-09T02:03:28;20.03;;;10.13;;
20743;SDS011;56303;52.160;-0.428;2022-09-09T02:11:13;12.17;;;7.90;;
20743;SDS011;56303;52.160;-0.428;2022-09-09T02:13:46;17.57;;;9.50;;
20743;SDS011;56303;52.160;-0.428;2022-09-09T02:21:40;15.80;;;8.87;;
20743;SDS011;56303;52.160;-0.428;2022-09-09T02:24:10;18.10;;;9.53;;
20743;SDS011;56303;52.160;-0.428;2022-09-09T02:26:42;12.97;;;8.03;;
20743;SDS011;56303;52.160;-0.428;2022-09-09T02:29:20;16.97;;;10.53;;
20743;SDS011;56303;52.160;-0.428;2022-09-09T02:31:51;21.63;;;9.90;;
20743;SDS011;56303;52.160;-0.428;2022-09-09T02:34:21;22.37;;;11.23;;
20743;SDS011;56303;52.160;-0.428;2022-09-09T02:36:50;18.20;;;10.33;;
20743;SDS011;56303;52.160;-0.428;2022-09-09T02:39:21;16.13;;;9.93;;
20743;SDS011;56303;52.160;-0.428;2022-09-09T02:41:47;14.03;;;9.20;;
20743;SDS011;56303;52.160;-0.428;2022-09-09T02:44:15;17.97;;;11.17;;
20743;SDS011;56303;52.160;-0.428;2022-09-09T02:49:43;21.27;;;10.30;;
20743;SDS011;56303;52.160;-0.428;2022-09-09T02:52:26;21.93;;;9.83;;
20743;SDS011;56303;52.160;-0.428;2022-09-09T02:55:12;18.77;;;9.63;;
20743;SDS011;56303;52.160;-0.428;2022-09-09T02:57:47;13.97;;;8.30;;
20743;SDS011;56303;52.160;-0.428;2022-09-09T03:00:16;14.87;;;8.90;;
20743;SDS011;56303;52.160;-0.428;2022-09-09T03:02:50;20.67;;;10.73;;
20743;SDS011;56303;52.160;-0.428;2022-09-09T03:05:17;18.43;;;9.33;;
20743;SDS011;56303;52.160;-0.428;2022-09-09T03:07:44;14.97;;;8.00;;
20743;SDS011;56303;52.160;-0.428;2022-09-09T03:10:11;20.93;;;10.10;;
20743;SDS011;56303;52.160;-0.428;2022-09-09T03:12:37;18.13;;;9.00;;
20743;SDS011;56303;52.160;-0.428;2022-09-09T03:15:05;16.87;;;9.23;;
20743;SDS011;56303;52.160;-0.428;2022-09-09T03:17:32;15.83;;;8.93;;
20743;SDS011;56303;52.160;-0.428;2022-09-09T03:20:01;20.97;;;9.57;;
20743;SDS011;56303;52.160;-0.428;2022-09-09T03:22:30;15.27;;;8.83;;
20743;SDS011;56303;52.160;-0.428;2022-09-09T03:24:57;17.13;;;11.00;;
20743;SDS011;56303;52.160;-0.428;2022-09-09T03:27:24;21.40;;;10.57;;
20743;SDS011;56303;52.160;-0.428;2022-09-09T03:29:51;21.97;;;12.10;;
20743;SDS011;56303;52.160;-0.428;2022-09-09T03:32:18;19.83;;;12.10;;
20743;SDS011;56303;52.160;-0.428;2022-09-09T03:34:45;17.53;;;11.27;;
20743;SDS011;56303;52.160;-0.428;2022-09-09T03:37:13;23.87;;;12.10;;
20743;SDS011;56303;52.160;-0.428;2022-09-09T03:39:40;20.47;;;13.03;;
20743;SDS011;56303;52.160;-0.428;2022-09-09T03:42:07;21.60;;;13.20;;
20743;SDS011;56303;52.160;-0.428;2022-09-09T03:44:33;23.97;;;14.10;;
20743;SDS011;56303;52.160;-0.428;2022-09-09T03:47:00;26.70;;;15.63;;
20743;SDS011;56303;52.160;-0.428;2022-09-09T03:49:27;30.07;;;15.77;;
20743;SDS011;56303;52.160;-0.428;2022-09-09T03:51:57;26.53;;;16.20;;
20743;SDS011;56303;52.160;-0.428;2022-09-09T03:54:25;27.20;;;15.60;;
20743;SDS011;56303;52.160;-0.428;2022-09-09T03:56:51;31.70;;;17.47;;
20743;SDS011;56303;52.160;-0.428;2022-09-09T03:59:18;27.03;;;16.40;;
20743;SDS011;56303;52.160;-0.428;2022-09-09T04:01:46;27.40;;;16.13;;
20743;SDS011;56303;52.160;-0.428;2022-09-09T04:04:13;29.73;;;16.47;;
20743;SDS011;56303;52.160;-0.428;2022-09-09T04:06:40;25.03;;;17.63;;
20743;SDS011;56303;52.160;-0.428;2022-09-09T04:09:07;28.00;;;16.30;;
20743;SDS011;56303;52.160;-0.428;2022-09-09T04:11:34;30.33;;;18.17;;
20743;SDS011;56303;52.160;-0.428;2022-09-09T04:14:01;24.17;;;16.70;;
20743;SDS011;56303;52.160;-0.428;2022-09-09T04:16:27;24.23;;;16.87;;
20743;SDS011;56303;52.160;-0.428;2022-09-09T04:18:54;29.07;;;18.53;;
20743;SDS011;56303;52.160;-0.428;2022-09-09T04:21:22;26.20;;;17.33;;
20743;SDS011;56303;52.160;-0.428;2022-09-09T04:23:49;35.43;;;19.63;;
20743;SDS011;56303;52.160;-0.428;2022-09-09T04:26:16;35.70;;;18.90;;
20743;SDS011;56303;52.160;-0.428;2022-09-09T04:28:43;28.53;;;19.27;;
20743;SDS011;56303;52.160;-0.428;2022-09-09T04:31:13;34.97;;;19.10;;
20743;SDS011;56303;52.160;-0.428;2022-09-09T04:33:44;35.80;;;20.37;;
20743;SDS011;56303;52.160;-0.428;2022-09-09T04:36:11;35.30;;;20.80;;
20743;SDS011;56303;52.160;-0.428;2022-09-09T04:38:38;58.93;;;23.87;;
20743;SDS011;56303;52.160;-0.428;2022-09-09T04:41:05;53.53;;;24.43;;
20743;SDS011;56303;52.160;-0.428;2022-09-09T04:43:33;42.90;;;24.50;;
20743;SDS011;56303;52.160;-0.428;2022-09-09T04:46:00;62.13;;;26.80;;
20743;SDS011;56303;52.160;-0.428;2022-09-09T04:48:27;88.87;;;31.13;;
20743;SDS011;56303;52.160;-0.428;2022-09-09T04:50:55;89.93;;;34.03;;
20743;SDS011;56303;52.160;-0.428;2022-09-09T04:53:26;61.97;;;29.00;;
20743;SDS011;56303;52.160;-0.428;2022-09-09T04:56:00;88.97;;;33.63;;
20743;SDS011;56303;52.160;-0.428;2022-09-09T04:58:31;90.87;;;34.73;;
20743;SDS011;56303;52.160;-0.428;2022-09-09T05:01:02;50.77;;;28.47;;
20743;SDS011;56303;52.160;-0.428;2022-09-09T05:03:30;43.67;;;26.27;;
20743;SDS011;56303;52.160;-0.428;2022-09-09T05:08:30;48.57;;;28.03;;
20743;SDS011;56303;52.160;-0.428;2022-09-09T05:10:58;47.23;;;26.70;;
20743;SDS011;56303;52.160;-0.428;2022-09-09T05:13:26;43.63;;;24.33;;
20743;SDS011;56303;52.160;-0.428;2022-09-09T05:15:54;35.10;;;22.60;;
20743;SDS011;56303;52.160;-0.428;2022-09-09T05:18:21;32.03;;;19.63;;
20743;SDS011;56303;52.160;-0.428;2022-09-09T05:20:48;33.67;;;21.13;;
20743;SDS011;56303;52.160;-0.428;2022-09-09T05:23:17;33.87;;;21.53;;
20743;SDS011;56303;52.160;-0.428;2022-09-09T05:25:43;42.63;;;23.57;;
20743;SDS011;56303;52.160;-0.428;2022-09-09T05:28:20;33.57;;;21.80;;
20743;SDS011;56303;52.160;-0.428;2022-09-09T05:30:54;45.00;;;25.13;;
20743;SDS011;56303;52.160;-0.428;2022-09-09T05:33:25;29.77;;;19.77;;
20743;SDS011;56303;52.160;-0.428;2022-09-09T05:36:03;29.47;;;18.63;;
20743;SDS011;56303;52.160;-0.428;2022-09-09T05:38:31;26.33;;;19.50;;
20743;SDS011;56303;52.160;-0.428;2022-09-09T05:40:59;31.87;;;19.37;;
20743;SDS011;56303;52.160;-0.428;2022-09-09T05:43:27;29.37;;;20.60;;
20743;SDS011;56303;52.160;-0.428;2022-09-09T05:46:02;32.27;;;18.93;;
20743;SDS011;56303;52.160;-0.428;2022-09-09T05:48:35;26.40;;;19.93;;
20743;SDS011;56303;52.160;-0.428;2022-09-09T05:51:04;30.13;;;18.80;;
20743;SDS011;56303;52.160;-0.428;2022-09-09T05:53:35;31.80;;;17.77;;
20743;SDS011;56303;52.160;-0.428;2022-09-09T05:56:03;48.53;;;22.87;;
20743;SDS011;56303;52.160;-0.428;2022-09-09T05:58:31;57.53;;;22.40;;
20743;SDS011;56303;52.160;-0.428;2022-09-09T06:01:06;53.50;;;22.93;;
20743;SDS011;56303;52.160;-0.428;2022-09-09T06:03:38;33.30;;;18.50;;
20743;SDS011;56303;52.160;-0.428;2022-09-09T06:06:08;33.63;;;19.53;;
20743;SDS011;56303;52.160;-0.428;2022-09-09T06:08:41;59.43;;;24.60;;
20743;SDS011;56303;52.160;-0.428;2022-09-09T06:13:41;60.60;;;26.73;;
20743;SDS011;56303;52.160;-0.428;2022-09-09T06:16:12;55.73;;;24.87;;
20743;SDS011;56303;52.160;-0.428;2022-09-09T06:18:42;55.53;;;24.87;;
20743;SDS011;56303;52.160;-0.428;2022-09-09T06:21:16;53.10;;;23.37;;
20743;SDS011;56303;52.160;-0.428;2022-09-09T06:24:03;65.27;;;28.80;;
20743;SDS011;56303;52.160;-0.428;2022-09-09T06:26:32;50.00;;;24.63;;
20743;SDS011;56303;52.160;-0.428;2022-09-09T06:29:01;35.50;;;20.93;;
20743;SDS011;56303;52.160;-0.428;2022-09-09T06:31:30;44.03;;;24.83;;
20743;SDS011;56303;52.160;-0.428;2022-09-09T06:34:00;46.80;;;24.67;;
20743;SDS011;56303;52.160;-0.428;2022-09-09T06:36:29;43.13;;;24.17;;
20743;SDS011;56303;52.160;-0.428;2022-09-09T06:38:57;32.30;;;21.70;;
20743;SDS011;56303;52.160;-0.428;2022-09-09T06:41:25;32.50;;;20.87;;
20743;SDS011;56303;52.160;-0.428;2022-09-09T06:43:56;45.73;;;24.80;;
20743;SDS011;56303;52.160;-0.428;2022-09-09T06:46:24;37.13;;;22.23;;
20743;SDS011;56303;52.160;-0.428;2022-09-09T06:48:54;35.87;;;19.30;;
20743;SDS011;56303;52.160;-0.428;2022-09-09T06:51:22;40.87;;;23.40;;
20743;SDS011;56303;52.160;-0.428;2022-09-09T06:53:52;39.40;;;22.93;;
20743;SDS011;56303;52.160;-0.428;2022-09-09T06:56:24;40.30;;;25.13;;
20743;SDS011;56303;52.160;-0.428;2022-09-09T06:58:55;32.53;;;20.73;;
20743;SDS011;56303;52.160;-0.428;2022-09-09T07:01:25;37.27;;;22.40;;
20743;SDS011;56303;52.160;-0.428;2022-09-09T07:03:55;34.70;;;20.97;;
20743;SDS011;56303;52.160;-0.428;2022-09-09T07:06:25;33.73;;;20.37;;
20743;SDS011;56303;52.160;-0.428;2022-09-09T07:08:55;34.67;;;21.83;;
20743;SDS011;56303;52.160;-0.428;2022-09-09T07:11:25;30.27;;;20.90;;
20743;SDS011;56303;52.160;-0.428;2022-09-09T07:13:53;35.17;;;20.73;;
20743;SDS011;56303;52.160;-0.428;2022-09-09T07:16:21;26.70;;;20.23;;
20743;SDS011;56303;52.160;-0.428;2022-09-09T07:18:51;34.77;;;23.70;;
20743;SDS011;56303;52.160;-0.428;2022-09-09T07:21:21;29.90;;;19.00;;
20743;SDS011;56303;52.160;-0.428;2022-09-09T07:23:48;37.50;;;23.97;;
20743;SDS011;56303;52.160;-0.428;2022-09-09T07:26:18;29.90;;;21.17;;
20743;SDS011;56303;52.160;-0.428;2022-09-09T07:28:47;39.37;;;23.93;;
20743;SDS011;56303;52.160;-0.428;2022-09-09T07:31:15;36.07;;;23.23;;
20743;SDS011;56303;52.160;-0.428;2022-09-09T07:33:46;35.93;;;22.00;;
20743;SDS011;56303;52.160;-0.428;2022-09-09T07:36:24;36.07;;;23.57;;
20743;SDS011;56303;52.160;-0.428;2022-09-09T07:39:08;30.17;;;21.97;;
20743;SDS011;56303;52.160;-0.428;2022-09-09T07:41:41;29.60;;;20.83;;
20743;SDS011;56303;52.160;-0.428;2022-09-09T07:44:10;30.30;;;21.20;;
20743;SDS011;56303;52.160;-0.428;2022-09-09T07:46:39;26.97;;;19.60;;
20743;SDS011;56303;52.160;-0.428;2022-09-09T07:49:08;26.30;;;19.00;;
20743;SDS011;56303;52.160;-0.428;2022-09-09T07:51:36;26.17;;;19.17;;
20743;SDS011;56303;52.160;-0.428;2022-09-09T07:54:06;28.07;;;20.27;;
20743;SDS011;56303;52.160;-0.428;2022-09-09T07:56:35;25.30;;;19.80;;
20743;SDS011;56303;52.160;-0.428;2022-09-09T07:59:05;30.20;;;20.90;;
20743;SDS011;56303;52.160;-0.428;2022-09-09T08:01:34;24.63;;;18.17;;
20743;SDS011;56303;52.160;-0.428;2022-09-09T08:04:06;22.90;;;17.60;;
20743;SDS011;56303;52.160;-0.428;2022-09-09T08:06:43;24.73;;;17.60;;
20743;SDS011;56303;52.160;-0.428;2022-09-09T08:09:12;27.20;;;19.57;;
20743;SDS011;56303;52.160;-0.428;2022-09-09T08:11:40;25.40;;;18.23;;
20743;SDS011;56303;52.160;-0.428;2022-09-09T08:14:08;23.27;;;17.87;;
20743;SDS011;56303;52.160;-0.428;2022-09-09T08:16:38;23.87;;;18.60;;
20743;SDS011;56303;52.160;-0.428;2022-09-09T08:19:10;24.97;;;18.73;;
20743;SDS011;56303;52.160;-0.428;2022-09-09T08:21:38;22.57;;;18.33;;
20743;SDS011;56303;52.160;-0.428;2022-09-09T08:24:06;28.90;;;20.00;;
20743;SDS011;56303;52.160;-0.428;2022-09-09T08:26:38;26.73;;;20.37;;
20743;SDS011;56303;52.160;-0.428;2022-09-09T08:29:12;26.30;;;20.87;;
20743;SDS011;56303;52.160;-0.428;2022-09-09T08:31:41;28.77;;;20.27;;
20743;SDS011;56303;52.160;-0.428;2022-09-09T08:34:09;28.43;;;20.93;;
20743;SDS011;56303;52.160;-0.428;2022-09-09T08:36:39;29.47;;;23.23;;
20743;SDS011;56303;52.160;-0.428;2022-09-09T08:39:09;30.47;;;23.37;;
20743;SDS011;56303;52.160;-0.428;2022-09-09T08:57:53;33.33;;;25.13;;
20743;SDS011;56303;52.160;-0.428;2022-09-09T09:00:22;35.60;;;26.13;;
20743;SDS011;56303;52.160;-0.428;2022-09-09T09:05:40;37.40;;;29.67;;
20743;SDS011;56303;52.160;-0.428;2022-09-09T09:08:57;44.67;;;32.53;;
20743;SDS011;56303;52.160;-0.428;2022-09-09T09:11:13;45.93;;;31.33;;
20743;SDS011;56303;52.160;-0.428;2022-09-09T09:13:43;42.80;;;31.53;;
20743;SDS011;56303;52.160;-0.428;2022-09-09T09:18:59;44.23;;;30.87;;
20743;SDS011;56303;52.160;-0.428;2022-09-09T09:24:12;40.17;;;30.07;;
20743;SDS011;56303;52.160;-0.428;2022-09-09T09:26:49;38.17;;;29.80;;
20743;SDS011;56303;52.160;-0.428;2022-09-09T09:29:18;39.07;;;29.47;;
20743;SDS011;56303;52.160;-0.428;2022-09-09T09:31:51;40.70;;;30.10;;
20743;SDS011;56303;52.160;-0.428;2022-09-09T09:34:23;37.77;;;29.00;;
20743;SDS011;56303;52.160;-0.428;2022-09-09T09:36:57;36.17;;;27.40;;
20743;SDS011;56303;52.160;-0.428;2022-09-09T09:39:30;37.07;;;24.90;;
20743;SDS011;56303;52.160;-0.428;2022-09-09T09:42:22;31.40;;;22.00;;
20743;SDS011;56303;52.160;-0.428;2022-09-09T09:44:49;27.30;;;20.80;;
20743;SDS011;56303;52.160;-0.428;2022-09-09T09:47:17;21.83;;;19.03;;
20743;SDS011;56303;52.160;-0.428;2022-09-09T09:49:58;23.13;;;19.23;;
20743;SDS011;56303;52.160;-0.428;2022-09-09T09:52:26;23.43;;;18.60;;
20743;SDS011;56303;52.160;-0.428;2022-09-09T09:54:56;22.37;;;18.30;;
20743;SDS011;56303;52.160;-0.428;2022-09-09T09:57:32;21.40;;;16.30;;
20743;SDS011;56303;52.160;-0.428;2022-09-09T10:00:16;24.83;;;16.70;;
20743;SDS011;56303;52.160;-0.428;2022-09-09T10:02:45;26.40;;;19.00;;
20743;SDS011;56303;52.160;-0.428;2022-09-09T10:05:15;21.50;;;15.87;;
20743;SDS011;56303;52.160;-0.428;2022-09-09T10:07:43;17.60;;;14.57;;
20743;SDS011;56303;52.160;-0.428;2022-09-09T10:10:25;18.97;;;14.00;;
20743;SDS011;56303;52.160;-0.428;2022-09-09T10:18:45;16.23;;;14.03;;
20743;SDS011;56303;52.160;-0.428;2022-09-09T10:26:48;19.30;;;15.43;;
20743;SDS011;56303;52.160;-0.428;2022-09-09T10:40:49;15.77;;;14.17;;
20743;SDS011;56303;52.160;-0.428;2022-09-09T10:52:23;12.73;;;11.40;;
20743;SDS011;56303;52.160;-0.428;2022-09-09T10:57:55;11.90;;;10.27;;
20743;SDS011;56303;52.160;-0.428;2022-09-09T11:00:46;11.60;;;10.40;;
20743;SDS011;56303;52.160;-0.428;2022-09-09T11:03:21;18.37;;;12.63;;
20743;SDS011;56303;52.160;-0.428;2022-09-09T11:08:30;14.13;;;12.70;;
20743;SDS011;56303;52.160;-0.428;2022-09-09T11:11:04;14.50;;;13.10;;
20743;SDS011;56303;52.160;-0.428;2022-09-09T11:18:59;14.93;;;13.33;;
20743;SDS011;56303;52.160;-0.428;2022-09-09T11:21:48;12.53;;;11.10;;
20743;SDS011;56303;52.160;-0.428;2022-09-09T11:24:21;12.23;;;9.23;;
20743;SDS011;56303;52.160;-0.428;2022-09-09T11:27:28;10.97;;;9.77;;
20743;SDS011;56303;52.160;-0.428;2022-09-09T11:33:15;13.07;;;11.77;;
20743;SDS011;56303;52.160;-0.428;2022-09-09T11:38:50;12.80;;;11.23;;
20743;SDS011;56303;52.160;-0.428;2022-09-09T11:41:19;16.00;;;12.73;;
20743;SDS011;56303;52.160;-0.428;2022-09-09T11:43:48;11.63;;;10.53;;
20743;SDS011;56303;52.160;-0.428;2022-09-09T11:46:31;10.67;;;9.70;;
20743;SDS011;56303;52.160;-0.428;2022-09-09T11:49:03;9.93;;;8.93;;
20743;SDS011;56303;52.160;-0.428;2022-09-09T11:51:33;9.03;;;8.07;;
20743;SDS011;56303;52.160;-0.428;2022-09-09T11:54:47;8.23;;;5.67;;
20743;SDS011;56303;52.160;-0.428;2022-09-09T11:56:55;7.33;;;5.00;;
20743;SDS011;56303;52.160;-0.428;2022-09-09T11:59:23;7.70;;;5.53;;
20743;SDS011;56303;52.160;-0.428;2022-09-09T12:02:00;5.27;;;4.00;;
20743;SDS011;56303;52.160;-0.428;2022-09-09T12:04:33;4.80;;;3.97;;
20743;SDS011;56303;52.160;-0.428;2022-09-09T12:17:10;6.90;;;4.07;;
20743;SDS011;56303;52.160;-0.428;2022-09-09T12:19:47;6.10;;;4.73;;
20743;SDS011;56303;52.160;-0.428;2022-09-09T12:24:43;8.60;;;6.20;;
20743;SDS011;56303;52.160;-0.428;2022-09-09T12:27:20;8.73;;;5.70;;
20743;SDS011;56303;52.160;-0.428;2022-09-09T12:29:56;10.57;;;6.30;;
20743;SDS011;56303;52.160;-0.428;2022-09-09T12:32:47;7.07;;;6.13;;
20743;SDS011;56303;52.160;-0.428;2022-09-09T12:35:34;11.10;;;6.30;;
20743;SDS011;56303;52.160;-0.428;2022-09-09T12:38:04;7.13;;;5.57;;
20743;SDS011;56303;52.160;-0.428;2022-09-09T12:40:37;9.73;;;7.23;;
20743;SDS011;56303;52.160;-0.428;2022-09-09T12:43:16;9.43;;;7.90;;
20743;SDS011;56303;52.160;-0.428;2022-09-09T12:45:46;9.70;;;6.90;;
20743;SDS011;56303;52.160;-0.428;2022-09-09T12:48:17;10.20;;;6.20;;
20743;SDS011;56303;52.160;-0.428;2022-09-09T12:50:47;8.83;;;7.00;;
20743;SDS011;56303;52.160;-0.428;2022-09-09T12:53:23;9.70;;;7.43;;
20743;SDS011;56303;52.160;-0.428;2022-09-09T12:56:04;9.37;;;7.43;;
20743;SDS011;56303;52.160;-0.428;2022-09-09T12:58:35;8.90;;;6.63;;
20743;SDS011;56303;52.160;-0.428;2022-09-09T13:01:05;8.30;;;7.03;;
20743;SDS011;56303;52.160;-0.428;2022-09-09T13:03:44;12.43;;;7.17;;
20743;SDS011;56303;52.160;-0.428;2022-09-09T13:06:13;9.27;;;6.47;;
20743;SDS011;56303;52.160;-0.428;2022-09-09T13:08:55;9.30;;;6.83;;
20743;SDS011;56303;52.160;-0.428;2022-09-09T13:11:27;8.57;;;6.90;;
20743;SDS011;56303;52.160;-0.428;2022-09-09T13:13:57;9.30;;;6.93;;
20743;SDS011;56303;52.160;-0.428;2022-09-09T13:20:14;10.37;;;7.03;;
20743;SDS011;56303;52.160;-0.428;2022-09-09T13:22:43;9.40;;;7.00;;
20743;SDS011;56303;52.160;-0.428;2022-09-09T13:27:38;11.67;;;8.70;;
20743;SDS011;56303;52.160;-0.428;2022-09-09T13:35:35;10.63;;;8.63;;
20743;SDS011;56303;52.160;-0.428;2022-09-09T13:38:22;13.30;;;8.37;;
20743;SDS011;56303;52.160;-0.428;2022-09-09T13:43:36;10.93;;;8.60;;
20743;SDS011;56303;52.160;-0.428;2022-09-09T13:46:24;8.50;;;7.60;;
20743;SDS011;56303;52.160;-0.428;2022-09-09T13:49:00;9.53;;;7.73;;
20743;SDS011;56303;52.160;-0.428;2022-09-09T13:51:45;9.07;;;6.47;;
20743;SDS011;56303;52.160;-0.428;2022-09-09T13:54:15;8.90;;;6.47;;
20743;SDS011;56303;52.160;-0.428;2022-09-09T13:56:44;8.10;;;7.20;;
20743;SDS011;56303;52.160;-0.428;2022-09-09T13:59:12;11.33;;;7.43;;
20743;SDS011;56303;52.160;-0.428;2022-09-09T14:01:45;9.93;;;7.47;;
20743;SDS011;56303;52.160;-0.428;2022-09-09T14:04:12;8.23;;;7.27;;
20743;SDS011;56303;52.160;-0.428;2022-09-09T14:06:39;10.87;;;7.63;;
20743;SDS011;56303;52.160;-0.428;2022-09-09T14:09:07;9.77;;;7.60;;
20743;SDS011;56303;52.160;-0.428;2022-09-09T14:11:36;7.53;;;6.33;;
20743;SDS011;56303;52.160;-0.428;2022-09-09T14:14:04;8.43;;;7.50;;
20743;SDS011;56303;52.160;-0.428;2022-09-09T14:16:31;8.80;;;7.43;;
20743;SDS011;56303;52.160;-0.428;2022-09-09T14:18:59;6.37;;;5.70;;
20743;SDS011;56303;52.160;-0.428;2022-09-09T14:21:27;8.03;;;5.47;;
20743;SDS011;56303;52.160;-0.428;2022-09-09T14:23:54;6.60;;;5.10;;
20743;SDS011;56303;52.160;-0.428;2022-09-09T14:26:21;7.17;;;5.17;;
20743;SDS011;56303;52.160;-0.428;2022-09-09T14:28:48;6.20;;;4.80;;
20743;SDS011;56303;52.160;-0.428;2022-09-09T14:31:21;7.37;;;5.07;;
20743;SDS011;56303;52.160;-0.428;2022-09-09T14:33:49;7.03;;;4.97;;
20743;SDS011;56303;52.160;-0.428;2022-09-09T14:36:17;7.93;;;5.07;;
20743;SDS011;56303;52.160;-0.428;2022-09-09T14:38:43;5.70;;;4.30;;
20743;SDS011;56303;52.160;-0.428;2022-09-09T14:41:11;9.27;;;5.43;;
20743;SDS011;56303;52.160;-0.428;2022-09-09T14:43:40;8.53;;;5.07;;
20743;SDS011;56303;52.160;-0.428;2022-09-09T14:46:08;7.03;;;4.97;;
20743;SDS011;56303;52.160;-0.428;2022-09-09T14:48:37;7.23;;;5.20;;
20743;SDS011;56303;52.160;-0.428;2022-09-09T14:51:08;7.77;;;5.00;;
20743;SDS011;56303;52.160;-0.428;2022-09-09T14:53:36;6.73;;;4.87;;
20743;SDS011;56303;52.160;-0.428;2022-09-09T14:56:05;6.90;;;4.30;;
20743;SDS011;56303;52.160;-0.428;2022-09-09T14:58:37;7.30;;;4.40;;
20743;SDS011;56303;52.160;-0.428;2022-09-09T15:01:05;7.90;;;4.40;;
20743;SDS011;56303;52.160;-0.428;2022-09-09T15:03:37;8.23;;;4.40;;
20743;SDS011;56303;52.160;-0.428;2022-09-09T15:06:14;5.83;;;4.10;;
20743;SDS011;56303;52.160;-0.428;2022-09-09T15:08:42;6.67;;;5.00;;
20743;SDS011;56303;52.160;-0.428;2022-09-09T15:11:10;7.63;;;5.90;;
20743;SDS011;56303;52.160;-0.428;2022-09-09T15:13:39;7.20;;;6.13;;
20743;SDS011;56303;52.160;-0.428;2022-09-09T15:16:07;7.07;;;6.37;;
20743;SDS011;56303;52.160;-0.428;2022-09-09T15:18:34;7.57;;;5.40;;
20743;SDS011;56303;52.160;-0.428;2022-09-09T15:21:03;14.17;;;6.90;;
20743;SDS011;56303;52.160;-0.428;2022-09-09T15:23:34;5.60;;;3.10;;
20743;SDS011;56303;52.160;-0.428;2022-09-09T15:26:02;3.53;;;2.67;;
20743;SDS011;56303;52.160;-0.428;2022-09-09T15:28:31;4.57;;;2.90;;
20743;SDS011;56303;52.160;-0.428;2022-09-09T15:31:07;5.43;;;2.70;;
20743;SDS011;56303;52.160;-0.428;2022-09-09T15:33:37;5.33;;;3.17;;
20743;SDS011;56303;52.160;-0.428;2022-09-09T15:36:17;5.60;;;3.10;;
20743;SDS011;56303;52.160;-0.428;2022-09-09T15:38:49;7.13;;;3.93;;
20743;SDS011;56303;52.160;-0.428;2022-09-09T15:41:17;7.13;;;4.60;;
20743;SDS011;56303;52.160;-0.428;2022-09-09T15:43:45;7.40;;;4.50;;
20743;SDS011;56303;52.160;-0.428;2022-09-09T15:48:55;9.70;;;5.23;;
20743;SDS011;56303;52.160;-0.428;2022-09-09T15:51:25;5.70;;;4.60;;
20743;SDS011;56303;52.160;-0.428;2022-09-09T15:54:13;7.20;;;5.20;;
20743;SDS011;56303;52.160;-0.428;2022-09-09T15:56:43;10.47;;;5.60;;
20743;SDS011;56303;52.160;-0.428;2022-09-09T15:59:11;7.93;;;5.17;;
20743;SDS011;56303;52.160;-0.428;2022-09-09T16:01:38;12.03;;;6.67;;
20743;SDS011;56303;52.160;-0.428;2022-09-09T16:04:05;9.40;;;6.60;;
20743;SDS011;56303;52.160;-0.428;2022-09-09T16:06:33;10.43;;;6.90;;
20743;SDS011;56303;52.160;-0.428;2022-09-09T16:09:01;9.40;;;6.17;;
20743;SDS011;56303;52.160;-0.428;2022-09-09T16:11:32;8.10;;;5.87;;
20743;SDS011;56303;52.160;-0.428;2022-09-09T16:14:01;10.90;;;6.27;;
20743;SDS011;56303;52.160;-0.428;2022-09-09T16:16:30;8.43;;;5.37;;
20743;SDS011;56303;52.160;-0.428;2022-09-09T16:18:58;9.57;;;5.40;;
20743;SDS011;56303;52.160;-0.428;2022-09-09T16:21:28;7.03;;;5.10;;
20743;SDS011;56303;52.160;-0.428;2022-09-09T16:23:58;5.93;;;4.87;;
20743;SDS011;56303;52.160;-0.428;2022-09-09T16:26:26;9.13;;;5.13;;
20743;SDS011;56303;52.160;-0.428;2022-09-09T16:28:55;6.97;;;4.77;;
20743;SDS011;56303;52.160;-0.428;2022-09-09T16:31:24;6.47;;;5.33;;
20743;SDS011;56303;52.160;-0.428;2022-09-09T16:33:53;8.43;;;5.27;;
20743;SDS011;56303;52.160;-0.428;2022-09-09T16:36:21;8.67;;;5.50;;
20743;SDS011;56303;52.160;-0.428;2022-09-09T16:38:53;8.57;;;4.93;;
20743;SDS011;56303;52.160;-0.428;2022-09-09T16:41:21;9.47;;;4.63;;
20743;SDS011;56303;52.160;-0.428;2022-09-09T16:43:51;7.67;;;4.17;;
20743;SDS011;56303;52.160;-0.428;2022-09-09T16:46:20;8.47;;;3.80;;
20743;SDS011;56303;52.160;-0.428;2022-09-09T16:48:47;5.37;;;2.83;;
20743;SDS011;56303;52.160;-0.428;2022-09-09T16:53:44;4.87;;;3.40;;
20743;SDS011;56303;52.160;-0.428;2022-09-09T16:56:15;5.97;;;3.80;;
20743;SDS011;56303;52.160;-0.428;2022-09-09T16:58:50;5.83;;;3.37;;
20743;SDS011;56303;52.160;-0.428;2022-09-09T17:01:18;4.00;;;2.97;;
20743;SDS011;56303;52.160;-0.428;2022-09-09T17:03:45;7.03;;;3.40;;
20743;SDS011;56303;52.160;-0.428;2022-09-09T17:06:13;6.80;;;3.63;;
20743;SDS011;56303;52.160;-0.428;2022-09-09T17:08:40;4.53;;;3.73;;
20743;SDS011;56303;52.160;-0.428;2022-09-09T17:11:11;7.73;;;4.97;;
20743;SDS011;56303;52.160;-0.428;2022-09-09T17:13:46;6.00;;;3.90;;
20743;SDS011;56303;52.160;-0.428;2022-09-09T17:16:14;6.97;;;3.93;;
20743;SDS011;56303;52.160;-0.428;2022-09-09T17:18:43;6.47;;;5.30;;
20743;SDS011;56303;52.160;-0.428;2022-09-09T17:21:13;8.30;;;5.73;;
20743;SDS011;56303;52.160;-0.428;2022-09-09T17:23:41;6.37;;;4.47;;
20743;SDS011;56303;52.160;-0.428;2022-09-09T17:26:09;5.73;;;3.80;;
20743;SDS011;56303;52.160;-0.428;2022-09-09T17:28:38;6.07;;;3.50;;